Aeroporto :
LOGIN :

Iscrizione | Disclaimer

   EN    FR    IT 

 










Sommario :    VFR   VFR Marginale   IFR   IFR Intensivo   IFR Molto Intensivo
Visibilità : 
Base nubi : 
>= 8 km
>= 3000ft
5 / 8 km
1000 / 3000 ft
1500m / 5 km
500 / 1000 ft
800 / 1500m
200 / 500 ft
< 800m
< 200 ft
Simboli :   Temporali  Nebbia  Neve Forte  Precipitazioni Forti  Vento > 20 kt
SIGMETs :   Varie  Temporali  Ghiacco  Turbolenza  Onda orograficha  Ceneri Vulcaniche







- Altitudine del aeroporto : 461 ft
- Codice IATA : WIE


ETOU - Wiesbaden Army

ULTIMO METAR :
  • 230556Z AUTO 00000KT 9999 CLR 14/10 A3030 RMK AO2 SLP259 T01400098 10152 20110 53004 $

METARs OBSOLETI :
  • 230456Z AUTO 00000KT 9999 CLR 12/08 A3029 RMK AO2 SLP256 T01150082 $
  • 230356Z AUTO 00000KT 9999 CLR 12/08 A3029 RMK AO2 SLP256 T01230084 $

TAF TAF ETOU
Valido dal 23 a 03 ore il 24 a 09 ore UTC


230300Z 2303/2409 VRB06KT 9999 SKC QNH3026INS
BECMG 2310/2311 09009KT 9999 SKC QNH3018INS
BECMG 2316/2317 VRB06KT 9999 SKC QNH3020INS TX26/2315Z TN11/2305Z
Nessun NOTAM noto per questo aeroporto.



MetMap, La meteo Aeronautica in un colpo d'occhio ! - Copyright ORBIFLY Dicembre 2007 - Disclaimer

ORBIFLY MET'MAP TEAM :

Programmazione e sviluppo : Alexandra Zaïnal
Concezione e sviluppo : Baudouin d'Aumeries
Co-Programmazione e sviluppo : Marc-Olivier Méhu
Supporto tecnico e logistico : Manuel Goepfert
Aiuto per la traduzione : Arnaldo La Scala

Contatto : metmap@orbifly.com




FONTI E CREDITI :

   NOAA